Time;durP1;ratioP1;P1;durP2;ratioP2;P2;SDS_P1;SDS_P2;PMS_P1;PMS_P2;Temp;Humidity;BMP_temperature;BMP_pressure;BME280_temperature;BME280_humidity;BME280_pressure;Samples;Min_cycle;Max_cycle;Signal;HPM_P1;HPM_P2
2023/07/03 00:00:26;;;;;;;12.88;4.05;;;;;;;;;;5109784;28;20389;-71
2023/07/03 00:02:52;;;;;;;12.65;4.30;;;;;;;;;;5099830;28;20052;-71
2023/07/03 00:05:19;;;;;;;14.70;4.38;;;;;;;;;;5088805;28;20101;-72
2023/07/03 00:07:48;;;;;;;12.43;4.22;;;;;;;;;;5101615;28;20071;-72
2023/07/03 00:10:14;;;;;;;12.10;4.25;;;;;;;;;;5099581;28;20138;-72
2023/07/03 00:12:40;;;;;;;13.52;4.35;;;;;;;;;;5111021;28;20054;-72
2023/07/03 00:15:07;;;;;;;13.88;4.93;;;;;;;;;;5107000;28;20047;-71
2023/07/03 00:17:33;;;;;;;12.15;4.15;;;;;;;;;;5092123;28;20051;-72
2023/07/03 00:19:59;;;;;;;13.73;4.55;;;;;;;;;;5094698;28;20637;-71
2023/07/03 00:22:25;;;;;;;14.00;4.47;;;;;;;;;;5103698;28;20048;-71
2023/07/03 00:24:51;;;;;;;17.13;4.95;;;;;;;;;;5092928;28;20120;-72
2023/07/03 00:27:18;;;;;;;15.90;4.15;;;;;;;;;;5097913;28;20039;-72
2023/07/03 00:29:44;;;;;;;12.85;4.22;;;;;;;;;;5114469;28;20036;-72
2023/07/03 00:32:10;;;;;;;13.15;4.32;;;;;;;;;;5115008;28;20450;-72
2023/07/03 00:34:36;;;;;;;15.20;4.40;;;;;;;;;;5114389;28;20605;-72
2023/07/03 00:37:02;;;;;;;16.27;4.60;;;;;;;;;;5114649;28;20146;-72
2023/07/03 00:39:29;;;;;;;14.43;4.15;;;;;;;;;;5115696;28;20051;-72
2023/07/03 00:41:55;;;;;;;15.73;4.85;;;;;;;;;;5110419;28;20036;-72
2023/07/03 00:44:21;;;;;;;12.15;4.13;;;;;;;;;;5109533;28;20369;-72
2023/07/03 00:46:51;;;;;;;15.80;4.53;;;;;;;;;;5098180;28;20043;-72
2023/07/03 00:49:19;;;;;;;13.35;4.32;;;;;;;;;;5104299;28;20051;-72
2023/07/03 00:51:47;;;;;;;17.08;4.68;;;;;;;;;;5095843;28;20475;-72
2023/07/03 00:54:13;;;;;;;15.52;4.55;;;;;;;;;;5112176;28;20101;-73
2023/07/03 00:56:40;;;;;;;10.32;3.70;;;;;;;;;;5110506;28;20039;-72
2023/07/03 00:59:06;;;;;;;14.68;4.35;;;;;;;;;;5115148;28;20433;-72
2023/07/03 01:01:44;;;;;;;16.15;5.05;;;;;;;;;;5111320;28;20050;-72
2023/07/03 01:04:16;;;;;;;14.90;4.00;;;;;;;;;;5107649;28;20094;-72
2023/07/03 01:06:54;;;;;;;16.83;4.43;;;;;;;;;;5105676;28;20047;-72
2023/07/03 01:09:22;;;;;;;12.68;4.47;;;;;;;;;;5113061;28;20065;-70
2023/07/03 01:11:48;;;;;;;12.02;4.15;;;;;;;;;;5097854;28;20083;-70
2023/07/03 01:14:17;;;;;;;16.40;4.18;;;;;;;;;;5115255;28;20043;-71
2023/07/03 01:16:43;;;;;;;13.65;3.85;;;;;;;;;;5110297;28;20044;-72
2023/07/03 01:19:11;;;;;;;11.40;3.90;;;;;;;;;;5097359;28;20131;-72
2023/07/03 01:21:41;;;;;;;11.95;4.15;;;;;;;;;;5105343;28;20123;-72
2023/07/03 01:24:14;;;;;;;14.43;4.03;;;;;;;;;;5092827;28;20153;-72
2023/07/03 01:26:41;;;;;;;14.43;4.28;;;;;;;;;;5095417;28;20044;-72
2023/07/03 01:29:08;;;;;;;12.95;4.10;;;;;;;;;;5094174;28;20086;-72
2023/07/03 01:31:36;;;;;;;13.70;4.18;;;;;;;;;;5112119;28;20054;-71
2023/07/03 01:34:03;;;;;;;12.32;3.53;;;;;;;;;;5113879;28;20135;-71
2023/07/03 01:36:31;;;;;;;15.90;4.60;;;;;;;;;;5100288;28;20047;-72
2023/07/03 01:38:58;;;;;;;12.25;3.60;;;;;;;;;;5093298;28;20051;-72
2023/07/03 01:41:25;;;;;;;15.73;4.13;;;;;;;;;;5096631;28;20039;-71
2023/07/03 01:43:52;;;;;;;15.52;4.15;;;;;;;;;;5111264;28;20054;-72
2023/07/03 01:46:19;;;;;;;10.95;4.00;;;;;;;;;;5097410;28;20583;-72
2023/07/03 01:48:45;;;;;;;11.55;3.88;;;;;;;;;;5093630;28;20032;-72
2023/07/03 01:51:13;;;;;;;9.02;3.63;;;;;;;;;;5093621;28;20512;-72
2023/07/03 01:53:44;;;;;;;13.68;4.18;;;;;;;;;;5111092;28;20035;-71
2023/07/03 01:56:17;;;;;;;13.90;3.75;;;;;;;;;;5103023;28;20047;-71
2023/07/03 01:58:46;;;;;;;10.13;3.58;;;;;;;;;;5103358;28;20131;-71
2023/07/03 02:01:19;;;;;;;13.43;3.40;;;;;;;;;;5092428;28;20146;-71
2023/07/03 02:04:14;;;;;;;12.95;3.65;;;;;;;;;;5093245;28;20086;-71
2023/07/03 02:06:43;;;;;;;12.48;3.53;;;;;;;;;;5092806;28;20176;-71
2023/07/03 02:09:09;;;;;;;14.63;4.00;;;;;;;;;;5113462;28;20047;-72
2023/07/03 02:11:36;;;;;;;13.55;3.78;;;;;;;;;;5112342;28;20046;-72
2023/07/03 02:14:02;;;;;;;16.95;4.13;;;;;;;;;;5113951;28;20043;-72
2023/07/03 02:16:29;;;;;;;9.95;3.47;;;;;;;;;;5105480;28;20074;-71
2023/07/03 02:18:55;;;;;;;14.40;3.60;;;;;;;;;;5093495;28;20044;-71
2023/07/03 02:21:22;;;;;;;11.88;3.33;;;;;;;;;;5092886;28;20039;-71
2023/07/03 02:23:48;;;;;;;12.23;3.90;;;;;;;;;;5092115;28;20084;-72
2023/07/03 02:26:15;;;;;;;11.15;3.58;;;;;;;;;;5106688;28;20047;-70
2023/07/03 02:28:41;;;;;;;9.93;3.30;;;;;;;;;;5112168;28;20391;-71
2023/07/03 02:31:07;;;;;;;14.05;3.20;;;;;;;;;;5097890;28;20052;-72
2023/07/03 02:33:34;;;;;;;12.63;3.65;;;;;;;;;;5093141;28;20058;-71
2023/07/03 02:36:04;;;;;;;13.48;3.47;;;;;;;;;;5103155;28;20524;-70
2023/07/03 02:38:30;;;;;;;11.35;3.30;;;;;;;;;;5094660;28;20471;-72
2023/07/03 02:40:56;;;;;;;8.77;2.85;;;;;;;;;;5108201;28;20048;-71
2023/07/03 02:43:22;;;;;;;11.38;3.00;;;;;;;;;;5113261;28;20040;-71
2023/07/03 02:45:48;;;;;;;12.38;2.97;;;;;;;;;;5112942;28;20039;-71
2023/07/03 02:48:15;;;;;;;14.55;3.25;;;;;;;;;;5112908;28;20039;-71
2023/07/03 02:50:41;;;;;;;10.23;2.83;;;;;;;;;;5111461;28;20052;-71
2023/07/03 02:53:08;;;;;;;12.10;3.00;;;;;;;;;;5112914;28;20035;-71
2023/07/03 02:55:34;;;;;;;9.85;3.03;;;;;;;;;;5111380;28;20050;-71
2023/07/03 02:58:00;;;;;;;11.02;3.10;;;;;;;;;;5111593;28;20047;-71
2023/07/03 03:00:27;;;;;;;10.10;2.88;;;;;;;;;;5109556;28;20046;-70
2023/07/03 03:02:54;;;;;;;10.40;2.97;;;;;;;;;;5113186;28;20127;-71
2023/07/03 03:05:20;;;;;;;9.50;2.97;;;;;;;;;;5111767;28;20046;-71
2023/07/03 03:07:46;;;;;;;10.63;2.97;;;;;;;;;;5102024;28;20040;-71
2023/07/03 03:10:12;;;;;;;10.05;2.58;;;;;;;;;;5105984;28;20411;-71
2023/07/03 03:12:39;;;;;;;7.93;2.53;;;;;;;;;;5096401;28;20551;-71
2023/07/03 03:15:06;;;;;;;10.15;3.05;;;;;;;;;;5112688;28;20051;-71
2023/07/03 03:17:32;;;;;;;10.10;2.78;;;;;;;;;;5112733;28;20487;-71
2023/07/03 03:19:58;;;;;;;12.55;3.08;;;;;;;;;;5107826;28;20039;-71
2023/07/03 03:22:24;;;;;;;13.07;2.90;;;;;;;;;;5099862;28;20131;-70
2023/07/03 03:24:50;;;;;;;12.80;2.85;;;;;;;;;;5091513;28;20062;-71
2023/07/03 03:27:16;;;;;;;9.98;2.67;;;;;;;;;;5093256;28;20043;-71
2023/07/03 03:29:42;;;;;;;12.40;2.85;;;;;;;;;;5091888;28;20131;-71
2023/07/03 03:32:09;;;;;;;11.43;2.53;;;;;;;;;;5094457;28;20119;-71
2023/07/03 03:34:35;;;;;;;15.32;2.95;;;;;;;;;;5093363;28;20052;-71
2023/07/03 03:37:03;;;;;;;9.38;2.80;;;;;;;;;;5094130;28;20040;-71
2023/07/03 03:39:30;;;;;;;11.50;2.78;;;;;;;;;;5102299;28;20137;-71
2023/07/03 03:41:56;;;;;;;11.20;3.03;;;;;;;;;;5102556;28;20403;-71
2023/07/03 03:44:22;;;;;;;12.32;2.97;;;;;;;;;;5118665;28;20048;-71
2023/07/03 03:46:48;;;;;;;10.80;2.83;;;;;;;;;;5110660;28;20096;-72
2023/07/03 03:49:17;;;;;;;10.60;2.63;;;;;;;;;;5110930;28;20040;-71
2023/07/03 03:51:43;;;;;;;9.70;2.80;;;;;;;;;;5112849;28;20131;-72
2023/07/03 03:54:10;;;;;;;10.95;2.65;;;;;;;;;;5112014;28;20118;-71
2023/07/03 03:56:37;;;;;;;8.88;2.63;;;;;;;;;;5112227;28;20050;-71
2023/07/03 03:59:03;;;;;;;13.85;2.88;;;;;;;;;;5104896;28;20032;-71
2023/07/03 04:01:29;;;;;;;8.82;2.58;;;;;;;;;;5100647;28;20059;-72
2023/07/03 04:03:55;;;;;;;9.07;2.80;;;;;;;;;;5104897;28;20075;-71
2023/07/03 04:06:21;;;;;;;11.23;2.50;;;;;;;;;;5097108;28;20043;-71
2023/07/03 04:08:47;;;;;;;12.13;2.58;;;;;;;;;;5096996;28;20048;-71
2023/07/03 04:11:14;;;;;;;10.43;2.80;;;;;;;;;;5109835;28;20046;-72
2023/07/03 04:13:40;;;;;;;12.80;2.90;;;;;;;;;;5107192;28;20464;-71
2023/07/03 04:16:07;;;;;;;9.85;2.85;;;;;;;;;;5095693;28;20039;-71
2023/07/03 04:18:33;;;;;;;11.57;2.88;;;;;;;;;;5095270;28;20040;-71
2023/07/03 04:20:59;;;;;;;11.77;2.72;;;;;;;;;;5095818;28;20040;-71
2023/07/03 04:23:25;;;;;;;12.90;3.10;;;;;;;;;;5101378;28;20376;-71
2023/07/03 04:25:52;;;;;;;11.27;2.90;;;;;;;;;;5113766;28;20048;-71
2023/07/03 04:28:19;;;;;;;12.15;3.00;;;;;;;;;;5102056;28;20040;-70
2023/07/03 04:30:46;;;;;;;13.68;2.92;;;;;;;;;;5093927;28;20040;-72
2023/07/03 04:33:12;;;;;;;10.38;2.95;;;;;;;;;;5098711;28;20036;-71
2023/07/03 04:35:38;;;;;;;11.93;2.72;;;;;;;;;;5115131;28;20445;-71
2023/07/03 04:38:05;;;;;;;12.52;2.60;;;;;;;;;;5115486;28;20411;-71
2023/07/03 04:40:31;;;;;;;11.55;2.85;;;;;;;;;;5113884;28;20059;-71
2023/07/03 04:42:57;;;;;;;12.57;3.13;;;;;;;;;;5099758;28;20116;-71
2023/07/03 04:45:24;;;;;;;12.73;2.85;;;;;;;;;;5114772;28;20050;-71
2023/07/03 04:47:51;;;;;;;12.90;2.78;;;;;;;;;;5098638;28;20052;-71
2023/07/03 04:50:18;;;;;;;14.10;2.80;;;;;;;;;;5094950;28;20459;-71
2023/07/03 04:52:46;;;;;;;10.48;3.15;;;;;;;;;;5101294;28;20036;-72
2023/07/03 04:55:12;;;;;;;12.55;3.10;;;;;;;;;;5113865;28;20104;-72
2023/07/03 04:57:40;;;;;;;9.77;2.67;;;;;;;;;;5110820;28;20036;-71
2023/07/03 05:00:11;;;;;;;9.43;2.72;;;;;;;;;;5094374;28;20158;-71
2023/07/03 05:02:37;;;;;;;13.05;2.90;;;;;;;;;;5097942;28;20100;-72
2023/07/03 05:05:03;;;;;;;15.02;2.97;;;;;;;;;;5099377;28;20041;-73
2023/07/03 05:07:31;;;;;;;16.60;3.05;;;;;;;;;;5094942;28;20074;-73
2023/07/03 05:10:01;;;;;;;12.93;3.05;;;;;;;;;;5109016;28;20047;-73
2023/07/03 05:12:27;;;;;;;11.85;2.58;;;;;;;;;;5113982;28;20507;-73
2023/07/03 05:14:54;;;;;;;11.98;3.30;;;;;;;;;;5113658;28;20489;-73
2023/07/03 05:17:21;;;;;;;12.93;2.90;;;;;;;;;;5114994;28;20066;-73
2023/07/03 05:19:47;;;;;;;8.05;2.67;;;;;;;;;;5114573;28;20054;-73
2023/07/03 05:22:13;;;;;;;11.98;3.00;;;;;;;;;;5114206;28;20055;-73
2023/07/03 05:24:39;;;;;;;11.95;3.03;;;;;;;;;;5092839;28;20052;-73
2023/07/03 05:27:05;;;;;;;14.32;2.80;;;;;;;;;;5093886;28;20040;-73
2023/07/03 05:29:34;;;;;;;11.32;2.65;;;;;;;;;;5093612;28;20101;-73
2023/07/03 05:32:01;;;;;;;11.73;2.72;;;;;;;;;;5092910;28;20546;-72
2023/07/03 05:34:27;;;;;;;12.77;3.20;;;;;;;;;;5094329;28;20523;-73
2023/07/03 05:36:54;;;;;;;11.50;3.13;;;;;;;;;;5094314;28;20470;-72
2023/07/03 05:39:20;;;;;;;14.70;2.85;;;;;;;;;;5094002;28;20460;-72
2023/07/03 05:41:46;;;;;;;11.68;2.72;;;;;;;;;;5092493;28;20457;-72
2023/07/03 05:44:12;;;;;;;9.95;2.65;;;;;;;;;;5093367;28;20101;-74
2023/07/03 05:46:38;;;;;;;17.65;2.85;;;;;;;;;;5112277;28;20035;-74
2023/07/03 05:49:04;;;;;;;11.55;2.70;;;;;;;;;;5104962;28;20404;-73
2023/07/03 05:51:30;;;;;;;12.90;2.67;;;;;;;;;;5091740;28;20059;-73
2023/07/03 05:53:57;;;;;;;9.07;2.75;;;;;;;;;;5107968;28;20127;-73
2023/07/03 05:56:23;;;;;;;10.43;2.63;;;;;;;;;;5112702;28;20035;-73
2023/07/03 05:58:49;;;;;;;11.15;2.58;;;;;;;;;;5112878;28;20040;-74
2023/07/03 06:01:15;;;;;;;11.10;2.47;;;;;;;;;;5114045;28;20083;-74
2023/07/03 06:03:43;;;;;;;12.52;3.00;;;;;;;;;;5114033;28;20040;-73
2023/07/03 06:06:09;;;;;;;11.55;2.80;;;;;;;;;;5114004;27;20426;-74
2023/07/03 06:08:36;;;;;;;9.45;2.33;;;;;;;;;;5112317;28;20098;-73
2023/07/03 06:11:02;;;;;;;12.02;2.70;;;;;;;;;;5100104;28;20131;-74
2023/07/03 06:13:28;;;;;;;10.95;2.60;;;;;;;;;;5092206;28;20051;-74
2023/07/03 06:15:54;;;;;;;13.60;2.95;;;;;;;;;;5107053;28;20049;-74
2023/07/03 06:18:20;;;;;;;10.00;2.70;;;;;;;;;;5113974;28;20075;-73
2023/07/03 06:20:47;;;;;;;13.10;2.75;;;;;;;;;;5097680;28;20079;-73
2023/07/03 06:23:13;;;;;;;11.75;2.53;;;;;;;;;;5098485;28;20048;-73
2023/07/03 06:25:40;;;;;;;16.05;3.15;;;;;;;;;;5096029;28;20082;-74
2023/07/03 06:28:06;;;;;;;10.65;2.72;;;;;;;;;;5091855;28;20104;-74
2023/07/03 06:30:32;;;;;;;13.77;2.97;;;;;;;;;;5092609;28;20051;-74
2023/07/03 06:32:58;;;;;;;10.93;2.50;;;;;;;;;;5093279;28;20495;-74
2023/07/03 06:35:24;;;;;;;9.75;2.53;;;;;;;;;;5092574;28;20040;-74
2023/07/03 06:37:55;;;;;;;8.85;2.30;;;;;;;;;;5091604;28;20400;-74
2023/07/03 06:40:22;;;;;;;12.45;2.70;;;;;;;;;;5092458;28;20358;-74
2023/07/03 06:42:48;;;;;;;10.82;2.60;;;;;;;;;;5098915;28;20122;-73
2023/07/03 06:45:14;;;;;;;11.27;2.67;;;;;;;;;;5098306;28;20444;-75
2023/07/03 06:47:40;;;;;;;17.50;3.03;;;;;;;;;;5097136;28;20365;-73
2023/07/03 06:50:07;;;;;;;11.43;2.22;;;;;;;;;;5091237;28;20094;-73
2023/07/03 06:52:36;;;;;;;13.68;2.80;;;;;;;;;;5108972;28;20038;-73
2023/07/03 06:55:03;;;;;;;8.40;2.55;;;;;;;;;;5113023;28;20054;-73
2023/07/03 06:57:29;;;;;;;10.30;2.67;;;;;;;;;;5111911;28;20454;-73
2023/07/03 06:59:55;;;;;;;10.88;2.67;;;;;;;;;;5119370;28;20047;-73
2023/07/03 07:02:21;;;;;;;10.00;2.63;;;;;;;;;;5118856;28;20096;-74
2023/07/03 07:04:47;;;;;;;12.05;2.33;;;;;;;;;;5113371;28;20112;-74
2023/07/03 07:07:13;;;;;;;13.90;2.35;;;;;;;;;;5109742;28;20035;-74
2023/07/03 07:09:39;;;;;;;7.38;2.20;;;;;;;;;;5109591;28;20125;-74
2023/07/03 07:12:06;;;;;;;11.15;2.80;;;;;;;;;;5112926;28;20180;-74
2023/07/03 07:14:32;;;;;;;11.43;2.67;;;;;;;;;;5112633;28;20089;-74
2023/07/03 07:16:58;;;;;;;8.25;2.45;;;;;;;;;;5112625;28;20047;-74
2023/07/03 07:19:24;;;;;;;9.07;2.50;;;;;;;;;;5107122;28;20043;-73
2023/07/03 07:21:50;;;;;;;12.18;2.63;;;;;;;;;;5090932;28;20396;-73
2023/07/03 07:24:16;;;;;;;10.50;2.65;;;;;;;;;;5090710;28;20052;-73
2023/07/03 07:26:43;;;;;;;8.48;2.60;;;;;;;;;;5092222;28;20084;-73
2023/07/03 07:29:09;;;;;;;12.57;2.35;;;;;;;;;;5110933;28;20055;-73
2023/07/03 07:31:38;;;;;;;9.65;3.00;;;;;;;;;;5112264;28;20043;-73
2023/07/03 07:34:05;;;;;;;13.55;2.63;;;;;;;;;;5112583;28;20087;-74
2023/07/03 07:36:31;;;;;;;9.07;2.40;;;;;;;;;;5113032;28;20067;-73
2023/07/03 07:38:59;;;;;;;11.77;2.45;;;;;;;;;;5117684;28;20039;-74
2023/07/03 07:41:25;;;;;;;7.45;2.13;;;;;;;;;;5099727;27;20051;-74
2023/07/03 07:43:51;;;;;;;9.90;2.42;;;;;;;;;;5098699;28;20100;-75
2023/07/03 07:46:18;;;;;;;14.60;2.50;;;;;;;;;;5099124;28;20135;-73
2023/07/03 07:48:46;;;;;;;10.25;2.13;;;;;;;;;;5098972;28;20105;-75
2023/07/03 07:51:13;;;;;;;12.93;2.20;;;;;;;;;;5099252;28;20169;-74
2023/07/03 07:53:39;;;;;;;9.25;2.35;;;;;;;;;;5111445;28;20122;-74
2023/07/03 07:56:09;;;;;;;10.63;2.58;;;;;;;;;;5118933;28;20044;-74
2023/07/03 07:58:36;;;;;;;10.93;2.47;;;;;;;;;;5118994;27;20062;-73
2023/07/03 08:01:02;;;;;;;8.60;2.30;;;;;;;;;;5118853;28;20176;-74
2023/07/03 08:03:29;;;;;;;10.73;2.08;;;;;;;;;;5117849;28;20104;-74
2023/07/03 08:05:58;;;;;;;9.77;2.20;;;;;;;;;;5119070;28;20128;-74
2023/07/03 08:08:26;;;;;;;8.48;2.17;;;;;;;;;;5118787;27;20084;-74
2023/07/03 08:10:59;;;;;;;9.57;2.22;;;;;;;;;;5117408;28;20095;-73
2023/07/03 08:13:26;;;;;;;6.55;2.15;;;;;;;;;;5118592;28;20364;-74
2023/07/03 08:15:54;;;;;;;7.18;2.13;;;;;;;;;;5114635;28;20043;-74
2023/07/03 08:18:20;;;;;;;6.95;1.90;;;;;;;;;;5117752;27;20043;-75
2023/07/03 08:20:47;;;;;;;10.52;2.22;;;;;;;;;;5118652;28;20116;-76
2023/07/03 08:23:13;;;;;;;14.10;2.22;;;;;;;;;;5117414;28;20407;-75
2023/07/03 08:25:40;;;;;;;7.60;2.00;;;;;;;;;;5118762;27;20054;-75
2023/07/03 08:28:06;;;;;;;9.43;2.55;;;;;;;;;;5118886;28;20059;-75
2023/07/03 08:30:32;;;;;;;5.28;1.55;;;;;;;;;;5118769;28;20044;-76
2023/07/03 08:32:58;;;;;;;6.85;1.70;;;;;;;;;;5119391;28;20400;-75
2023/07/03 08:35:24;;;;;;;8.25;2.00;;;;;;;;;;5117412;28;20043;-75
2023/07/03 08:37:52;;;;;;;6.80;2.03;;;;;;;;;;5118989;28;20043;-75
2023/07/03 08:40:19;;;;;;;6.60;1.60;;;;;;;;;;5117126;28;20119;-75
2023/07/03 08:42:48;;;;;;;9.40;1.63;;;;;;;;;;5118391;28;20047;-75
2023/07/03 08:45:15;;;;;;;7.60;1.67;;;;;;;;;;5116515;28;20040;-75
2023/07/03 08:47:42;;;;;;;9.98;1.75;;;;;;;;;;5118091;28;20051;-75
2023/07/03 08:50:10;;;;;;;5.03;1.50;;;;;;;;;;5115132;28;20136;-75
2023/07/03 08:52:39;;;;;;;7.32;2.00;;;;;;;;;;5115336;28;20483;-73
2023/07/03 08:55:07;;;;;;;7.28;1.80;;;;;;;;;;5113840;28;20044;-74
2023/07/03 08:57:33;;;;;;;8.93;1.90;;;;;;;;;;5100700;28;20497;-73
2023/07/03 08:59:59;;;;;;;7.32;1.80;;;;;;;;;;5094573;28;20044;-73
2023/07/03 09:02:55;;;;;;;5.93;1.70;;;;;;;;;;5100405;28;20107;-74
2023/07/03 09:05:21;;;;;;;9.00;1.88;;;;;;;;;;5082872;28;20153;-73
2023/07/03 09:07:52;;;;;;;6.10;1.73;;;;;;;;;;5097447;28;20040;-73
2023/07/03 09:10:27;;;;;;;5.05;1.45;;;;;;;;;;5106429;28;20058;-72
2023/07/03 09:13:05;;;;;;;4.93;1.50;;;;;;;;;;5100173;28;20503;-73
2023/07/03 09:15:38;;;;;;;4.93;1.40;;;;;;;;;;5106354;28;20333;-72
2023/07/03 09:18:11;;;;;;;8.00;1.80;;;;;;;;;;5094596;28;20044;-73
2023/07/03 09:20:37;;;;;;;7.68;1.67;;;;;;;;;;5101209;28;20381;-71
2023/07/03 09:23:22;;;;;;;6.60;1.70;;;;;;;;;;5107366;28;20156;-72
2023/07/03 09:26:07;;;;;;;6.93;2.15;;;;;;;;;;5103142;28;20131;-73
2023/07/03 09:28:35;;;;;;;5.45;1.80;;;;;;;;;;5106159;28;20388;-72
2023/07/03 09:31:01;;;;;;;7.18;2.03;;;;;;;;;;5092265;28;20055;-72
2023/07/03 09:33:27;;;;;;;7.63;2.13;;;;;;;;;;5092990;28;20067;-73
2023/07/03 09:35:53;;;;;;;7.50;2.17;;;;;;;;;;5094144;28;20036;-71
2023/07/03 09:38:23;;;;;;;8.77;2.22;;;;;;;;;;5094123;28;20039;-71
2023/07/03 09:40:51;;;;;;;8.00;2.13;;;;;;;;;;5093531;28;20044;-71
2023/07/03 09:43:29;;;;;;;6.75;2.15;;;;;;;;;;5094901;28;20405;-71
2023/07/03 09:46:07;;;;;;;9.60;1.83;;;;;;;;;;5093677;28;20362;-71
2023/07/03 09:48:35;;;;;;;8.27;2.13;;;;;;;;;;5093599;28;20055;-71
2023/07/03 09:51:05;;;;;;;6.53;1.90;;;;;;;;;;5093581;28;20040;-71
2023/07/03 09:53:31;;;;;;;8.65;2.00;;;;;;;;;;5104473;28;20447;-71
2023/07/03 09:55:58;;;;;;;11.40;2.22;;;;;;;;;;5112757;28;20040;-73
2023/07/03 09:58:27;;;;;;;6.40;1.80;;;;;;;;;;5104107;28;20097;-73
2023/07/03 10:01:00;;;;;;;7.72;1.92;;;;;;;;;;5103058;28;20050;-74
2023/07/03 10:03:28;;;;;;;5.82;1.90;;;;;;;;;;5106272;28;20136;-75
2023/07/03 10:05:55;;;;;;;6.20;1.75;;;;;;;;;;5092313;28;20075;-73
2023/07/03 10:08:24;;;;;;;8.35;1.60;;;;;;;;;;5090540;28;20093;-71
2023/07/03 10:10:51;;;;;;;6.55;1.50;;;;;;;;;;5091277;28;20044;-72
2023/07/03 10:13:17;;;;;;;7.20;1.90;;;;;;;;;;5089608;28;20096;-71
2023/07/03 10:15:43;;;;;;;5.40;1.50;;;;;;;;;;5091613;28;20044;-71
2023/07/03 10:18:17;;;;;;;7.97;2.03;;;;;;;;;;5093593;28;20079;-71
2023/07/03 10:20:44;;;;;;;5.57;1.73;;;;;;;;;;5099367;28;20480;-71
2023/07/03 10:23:33;;;;;;;3.67;1.48;;;;;;;;;;5095657;28;20268;-71
2023/07/03 10:26:04;;;;;;;6.03;1.80;;;;;;;;;;5079842;28;20047;-71
2023/07/03 10:28:35;;;;;;;6.05;1.70;;;;;;;;;;5089007;28;20491;-71
2023/07/03 10:31:04;;;;;;;6.78;1.77;;;;;;;;;;5093141;28;20130;-71
2023/07/03 10:33:32;;;;;;;5.43;1.80;;;;;;;;;;5081614;28;20044;-71
2023/07/03 10:36:01;;;;;;;5.75;1.70;;;;;;;;;;5085562;28;20051;-73
2023/07/03 10:38:27;;;;;;;4.45;1.60;;;;;;;;;;5089369;28;20101;-74
2023/07/03 10:40:59;;;;;;;4.82;1.60;;;;;;;;;;5113484;28;20386;-74
2023/07/03 10:43:28;;;;;;;8.20;1.77;;;;;;;;;;5113329;28;20035;-74
2023/07/03 10:45:55;;;;;;;8.50;1.77;;;;;;;;;;5112968;28;20044;-74
2023/07/03 10:48:23;;;;;;;7.88;2.10;;;;;;;;;;5113308;28;20090;-74
2023/07/03 10:50:56;;;;;;;6.30;2.10;;;;;;;;;;5109882;28;20079;-74
2023/07/03 10:53:25;;;;;;;9.60;1.92;;;;;;;;;;5106613;28;20046;-75
2023/07/03 10:55:51;;;;;;;6.45;1.63;;;;;;;;;;5105000;28;20055;-75
2023/07/03 10:58:28;;;;;;;6.05;1.60;;;;;;;;;;5110501;28;20044;-75
2023/07/03 11:01:08;;;;;;;5.05;1.80;;;;;;;;;;5091482;28;20094;-72
2023/07/03 11:03:41;;;;;;;7.05;1.70;;;;;;;;;;5089059;28;20067;-73
2023/07/03 11:06:15;;;;;;;4.43;1.50;;;;;;;;;;5089329;28;20060;-71
2023/07/03 11:09:20;;;;;;;6.57;1.60;;;;;;;;;;5089014;28;20050;-72
2023/07/03 11:11:52;;;;;;;5.40;1.80;;;;;;;;;;5004271;28;20144;-73
2023/07/03 11:14:18;;;;;;;5.93;1.67;;;;;;;;;;5005047;28;20139;-72
2023/07/03 11:16:47;;;;;;;6.07;1.88;;;;;;;;;;5039800;28;20117;-71
2023/07/03 11:19:13;;;;;;;6.75;2.05;;;;;;;;;;5089101;28;20036;-72
2023/07/03 11:21:50;;;;;;;8.75;2.22;;;;;;;;;;5089480;28;20040;-72
2023/07/03 11:24:16;;;;;;;7.57;1.70;;;;;;;;;;5090077;28;20052;-73
2023/07/03 11:26:52;;;;;;;5.43;1.90;;;;;;;;;;5088318;28;20059;-72
2023/07/03 11:29:18;;;;;;;7.15;2.10;;;;;;;;;;5088659;28;20062;-72
2023/07/03 11:31:45;;;;;;;6.75;1.88;;;;;;;;;;5089799;28;20081;-72
2023/07/03 11:34:13;;;;;;;4.53;1.70;;;;;;;;;;5089246;28;20050;-74
2023/07/03 11:36:39;;;;;;;4.75;1.50;;;;;;;;;;5091957;28;20044;-75
2023/07/03 11:39:26;;;;;;;5.40;1.50;;;;;;;;;;5091515;28;20040;-75
2023/07/03 11:41:54;;;;;;;4.68;1.48;;;;;;;;;;5091997;28;20044;-75
2023/07/03 11:44:35;;;;;;;6.95;1.83;;;;;;;;;;5092270;28;20373;-74
2023/07/03 11:47:05;;;;;;;5.13;1.70;;;;;;;;;;5090804;28;20048;-75
2023/07/03 11:49:32;;;;;;;6.38;2.10;;;;;;;;;;5091518;28;20197;-75
2023/07/03 11:52:00;;;;;;;4.90;1.77;;;;;;;;;;5091891;28;20471;-74
2023/07/03 11:54:28;;;;;;;5.05;1.50;;;;;;;;;;5092489;28;20051;-75
2023/07/03 11:57:00;;;;;;;7.53;1.88;;;;;;;;;;5107366;28;20032;-74
2023/07/03 11:59:28;;;;;;;6.53;1.73;;;;;;;;;;5112410;28;20130;-75
2023/07/03 12:02:15;;;;;;;9.40;1.60;;;;;;;;;;5112514;28;20126;-75
2023/07/03 12:04:47;;;;;;;5.38;1.60;;;;;;;;;;5057653;28;20516;-74
2023/07/03 12:07:20;;;;;;;6.88;1.60;;;;;;;;;;5092302;28;20055;-74
2023/07/03 12:09:49;;;;;;;6.05;1.55;;;;;;;;;;5090299;28;20138;-72
2023/07/03 12:12:18;;;;;;;5.53;1.85;;;;;;;;;;5088780;28;20040;-72
2023/07/03 12:14:52;;;;;;;6.90;1.73;;;;;;;;;;5087690;28;20059;-72
2023/07/03 12:17:19;;;;;;;7.10;1.90;;;;;;;;;;5089230;28;20096;-72
2023/07/03 12:19:46;;;;;;;5.15;1.60;;;;;;;;;;5089150;28;20377;-72
2023/07/03 12:22:18;;;;;;;6.40;1.85;;;;;;;;;;5088352;28;20048;-71
2023/07/03 12:24:44;;;;;;;6.95;1.83;;;;;;;;;;5110406;28;20461;-72
2023/07/03 12:27:10;;;;;;;7.32;1.70;;;;;;;;;;5109289;28;20040;-72
2023/07/03 12:29:37;;;;;;;5.82;1.70;;;;;;;;;;5106665;28;20127;-71
2023/07/03 12:32:07;;;;;;;6.07;1.65;;;;;;;;;;5092669;28;20044;-72
2023/07/03 12:34:38;;;;;;;5.70;1.70;;;;;;;;;;5092801;28;20040;-71
2023/07/03 12:37:07;;;;;;;8.23;2.05;;;;;;;;;;5092369;28;20056;-71
2023/07/03 12:39:33;;;;;;;7.70;2.00;;;;;;;;;;5091783;28;20503;-71
2023/07/03 12:42:07;;;;;;;5.32;1.70;;;;;;;;;;5092530;28;20147;-71
2023/07/03 12:44:34;;;;;;;8.63;1.85;;;;;;;;;;5090693;28;20492;-71
2023/07/03 12:47:16;;;;;;;7.20;1.73;;;;;;;;;;5095476;28;20044;-73
2023/07/03 12:49:55;;;;;;;8.15;1.85;;;;;;;;;;5093540;28;20516;-74
2023/07/03 12:52:25;;;;;;;10.45;1.90;;;;;;;;;;5096936;28;20055;-73
2023/07/03 12:54:51;;;;;;;5.25;1.58;;;;;;;;;;5115165;28;20062;-74
2023/07/03 12:57:20;;;;;;;6.63;1.98;;;;;;;;;;5113534;28;20040;-75
2023/07/03 12:59:53;;;;;;;8.18;1.83;;;;;;;;;;5111902;28;20043;-75
2023/07/03 13:02:24;;;;;;;6.95;1.88;;;;;;;;;;5107457;28;20035;-75
2023/07/03 13:05:03;;;;;;;8.45;1.80;;;;;;;;;;5113617;28;20044;-75
2023/07/03 13:07:29;;;;;;;8.68;1.85;;;;;;;;;;5114313;28;20051;-75
2023/07/03 13:09:58;;;;;;;6.85;2.03;;;;;;;;;;5114994;28;20043;-74
2023/07/03 13:12:25;;;;;;;9.27;2.08;;;;;;;;;;5114804;28;20067;-75
2023/07/03 13:15:11;;;;;;;7.88;1.73;;;;;;;;;;5112573;28;20054;-74
2023/07/03 13:17:42;;;;;;;5.68;1.98;;;;;;;;;;5114764;28;20048;-74
2023/07/03 13:20:19;;;;;;;9.70;2.15;;;;;;;;;;5114283;28;20046;-74
2023/07/03 13:22:46;;;;;;;7.75;1.90;;;;;;;;;;5113888;28;20056;-74
2023/07/03 13:25:12;;;;;;;9.55;2.25;;;;;;;;;;5114785;28;20088;-73
2023/07/03 13:27:38;;;;;;;7.55;2.05;;;;;;;;;;5114036;28;20454;-74
2023/07/03 13:30:24;;;;;;;4.93;1.63;;;;;;;;;;5113044;28;20135;-74
2023/07/03 13:32:55;;;;;;;7.53;2.00;;;;;;;;;;5113792;28;20138;-73
2023/07/03 13:35:29;;;;;;;5.85;1.70;;;;;;;;;;5113821;28;20445;-73
2023/07/03 13:38:11;;;;;;;7.40;1.80;;;;;;;;;;5112619;28;20047;-74
2023/07/03 13:40:38;;;;;;;7.10;1.80;;;;;;;;;;5114129;28;20441;-74
2023/07/03 13:43:04;;;;;;;6.97;1.60;;;;;;;;;;5113291;28;20071;-74
2023/07/03 13:45:31;;;;;;;5.80;1.50;;;;;;;;;;5116912;28;20070;-73
2023/07/03 13:47:57;;;;;;;4.80;1.50;;;;;;;;;;5120715;28;20046;-73
2023/07/03 13:50:24;;;;;;;6.13;1.60;;;;;;;;;;5117350;28;20139;-75
2023/07/03 13:52:52;;;;;;;6.18;1.65;;;;;;;;;;5114205;27;20439;-73
2023/07/03 13:55:18;;;;;;;4.72;1.55;;;;;;;;;;5114337;28;20054;-74
2023/07/03 13:57:44;;;;;;;7.60;1.58;;;;;;;;;;5113413;28;20039;-73
2023/07/03 14:00:11;;;;;;;5.20;1.42;;;;;;;;;;5113773;28;20039;-73
2023/07/03 14:02:38;;;;;;;6.25;1.85;;;;;;;;;;5114442;28;20123;-73
2023/07/03 14:05:05;;;;;;;6.57;1.77;;;;;;;;;;5113977;28;20044;-73
2023/07/03 14:07:31;;;;;;;4.80;1.50;;;;;;;;;;5114185;28;20131;-73
2023/07/03 14:09:59;;;;;;;3.88;1.63;;;;;;;;;;5113922;28;20082;-73
2023/07/03 14:12:25;;;;;;;6.50;1.67;;;;;;;;;;5114179;28;20040;-73
2023/07/03 14:14:51;;;;;;;5.70;1.40;;;;;;;;;;5111791;28;20047;-73
2023/07/03 14:17:17;;;;;;;5.95;1.60;;;;;;;;;;5112493;28;20066;-73
2023/07/03 14:19:43;;;;;;;4.68;1.58;;;;;;;;;;5113464;28;20071;-73
2023/07/03 14:22:09;;;;;;;5.75;1.83;;;;;;;;;;5112546;28;20051;-74
2023/07/03 14:24:35;;;;;;;11.95;2.13;;;;;;;;;;5113760;28;20404;-74
2023/07/03 14:27:02;;;;;;;6.72;1.80;;;;;;;;;;5114138;28;20085;-73
2023/07/03 14:29:29;;;;;;;7.72;1.70;;;;;;;;;;5111863;28;20083;-74
2023/07/03 14:31:55;;;;;;;7.90;1.80;;;;;;;;;;5112094;28;20114;-74
2023/07/03 14:34:21;;;;;;;6.07;1.83;;;;;;;;;;5113427;28;20131;-74
2023/07/03 14:36:47;;;;;;;6.28;1.63;;;;;;;;;;5113473;28;20228;-74
2023/07/03 14:39:13;;;;;;;7.07;1.83;;;;;;;;;;5113253;28;20035;-73
2023/07/03 14:41:39;;;;;;;6.68;1.75;;;;;;;;;;5113297;28;20043;-74